createdAt,value
2023-03-15T00:00:16.364Z,2.67
2023-03-15T00:01:16.390Z,2.69
2023-03-15T00:02:16.424Z,2.68
2023-03-15T00:03:16.508Z,2.65
2023-03-15T00:04:16.358Z,2.57
2023-03-15T00:05:16.331Z,2.61
2023-03-15T00:06:16.341Z,2.69
2023-03-15T00:07:16.313Z,2.61
2023-03-15T00:08:16.331Z,2.57
2023-03-15T00:09:16.302Z,2.53
2023-03-15T00:10:16.993Z,2.51
2023-03-15T00:11:16.306Z,2.50
2023-03-15T00:12:16.286Z,2.43
2023-03-15T00:13:16.265Z,2.32
2023-03-15T00:14:16.244Z,2.31
2023-03-15T00:15:16.247Z,2.20
2023-03-15T00:16:16.273Z,2.35
2023-03-15T00:17:16.238Z,2.17
2023-03-15T00:18:16.240Z,2.28
2023-03-15T00:19:16.244Z,2.28
2023-03-15T00:20:16.210Z,2.18
2023-03-15T00:21:17.186Z,2.08
2023-03-15T00:22:16.202Z,2.14
2023-03-15T00:24:16.298Z,1.99
2023-03-15T00:25:16.298Z,1.92
2023-03-15T00:26:16.313Z,1.85
2023-03-15T00:27:17.371Z,1.84
2023-03-15T00:28:17.373Z,1.74
2023-03-15T00:29:17.378Z,1.78
2023-03-15T00:30:17.354Z,1.74
2023-03-15T00:31:17.427Z,1.74
2023-03-15T00:32:17.327Z,1.78
2023-03-15T00:33:17.335Z,1.71
2023-03-15T00:34:17.313Z,1.66
2023-03-15T00:35:17.308Z,1.52
2023-03-15T00:36:17.307Z,1.53
2023-03-15T00:37:17.725Z,1.38
2023-03-15T00:38:17.306Z,1.38
2023-03-15T00:39:17.313Z,1.40
2023-03-15T00:40:17.286Z,1.32
2023-03-15T00:41:17.261Z,1.40
2023-03-15T00:42:17.250Z,1.41
2023-03-15T00:43:17.290Z,1.38
2023-03-15T00:44:17.247Z,1.45
2023-03-15T00:45:17.247Z,1.30
2023-03-15T00:46:18.283Z,1.28
2023-03-15T00:47:17.240Z,1.23
2023-03-15T00:48:17.217Z,1.28
2023-03-15T00:49:18.133Z,1.26
2023-03-15T00:50:17.198Z,1.12
2023-03-15T00:51:17.177Z,1.13
2023-03-15T00:52:17.242Z,1.16
2023-03-15T00:53:17.152Z,1.06
2023-03-15T00:54:17.185Z,1.04
2023-03-15T00:55:17.142Z,0.96
2023-03-15T00:56:17.642Z,0.91
2023-03-15T00:57:17.134Z,0.94
2023-03-15T00:58:17.146Z,0.87
2023-03-15T00:59:17.124Z,0.87
2023-03-15T01:00:17.100Z,0.84
2023-03-15T01:01:17.157Z,0.86
2023-03-15T01:02:17.112Z,0.88
2023-03-15T01:03:17.164Z,0.77
2023-03-15T01:04:17.070Z,0.86
2023-03-15T01:05:17.075Z,0.78
2023-03-15T01:06:17.080Z,0.80
2023-03-15T01:07:17.729Z,0.63
2023-03-15T01:08:17.070Z,0.73
2023-03-15T01:09:17.070Z,0.65
2023-03-15T01:10:17.034Z,0.56
2023-03-15T01:11:17.012Z,0.56
2023-03-15T01:12:17.001Z,0.56
2023-03-15T01:13:17.016Z,0.58
2023-03-15T01:14:17.018Z,0.47
2023-03-15T01:15:16.981Z,0.43
2023-03-15T01:16:17.011Z,0.34
2023-03-15T01:17:16.966Z,0.37
2023-03-15T01:18:17.756Z,0.31
2023-03-15T01:19:16.974Z,0.32
2023-03-15T01:20:16.957Z,0.29
2023-03-15T01:21:16.963Z,0.25
2023-03-15T01:22:16.929Z,0.22
2023-03-15T01:23:17.921Z,0.26
2023-03-15T01:24:16.925Z,0.16
2023-03-15T01:25:16.899Z,0.19
2023-03-15T01:26:16.904Z,0.16
2023-03-15T01:27:16.882Z,0.21
2023-03-15T01:28:16.896Z,0.16
2023-03-15T01:29:16.887Z,0.21
2023-03-15T01:30:16.884Z,0.15
2023-03-15T01:31:16.888Z,0.11
2023-03-15T01:32:16.855Z,0.28
2023-03-15T01:33:16.852Z,0.28
2023-03-15T01:34:16.831Z,0.22
2023-03-15T01:35:16.836Z,0.11
2023-03-15T01:36:16.814Z,0.21
2023-03-15T01:37:16.813Z,0.19
2023-03-15T01:38:16.828Z,0.16
2023-03-15T01:39:16.797Z,0.16
2023-03-15T01:40:16.788Z,0.11
2023-03-15T01:41:16.779Z,0.23
2023-03-15T01:42:16.774Z,0.10
2023-03-15T01:43:16.808Z,0.12
2023-03-15T01:44:16.761Z,0.08
2023-03-15T01:45:16.741Z,0.22
2023-03-15T01:46:16.764Z,0.15
2023-03-15T01:47:16.722Z,0.25
2023-03-15T01:48:16.704Z,0.23
2023-03-15T01:49:16.742Z,0.23
2023-03-15T01:50:16.725Z,0.18
2023-03-15T01:51:16.730Z,0.15
2023-03-15T01:52:16.712Z,0.21
2023-03-15T01:53:17.680Z,0.22
2023-03-15T01:54:16.676Z,0.15
2023-03-15T01:55:16.724Z,0.25
2023-03-15T01:56:16.662Z,0.36
2023-03-15T01:57:16.661Z,0.32
2023-03-15T01:58:16.646Z,0.25
2023-03-15T01:59:16.670Z,0.32
2023-03-15T02:00:16.672Z,0.39
2023-03-15T02:01:16.660Z,0.32
2023-03-15T02:02:16.754Z,0.28
2023-03-15T02:03:16.627Z,0.34
2023-03-15T02:04:16.608Z,0.32
2023-03-15T02:05:16.580Z,0.26
2023-03-15T02:06:16.650Z,0.32
2023-03-15T02:07:16.585Z,0.41
2023-03-15T02:08:16.572Z,0.31
2023-03-15T02:09:16.565Z,0.31
2023-03-15T02:10:16.546Z,0.34
2023-03-15T02:11:16.557Z,0.18
2023-03-15T02:12:16.573Z,0.21
2023-03-15T02:13:16.531Z,0.15
2023-03-15T02:14:16.524Z,0.11
2023-03-15T02:15:16.513Z,0.16
2023-03-15T02:16:16.523Z,0.15
2023-03-15T02:17:16.534Z,0.19
2023-03-15T02:18:16.742Z,0.11
2023-03-15T02:19:16.497Z,0.19
2023-03-15T02:20:16.512Z,0.32
2023-03-15T02:21:16.460Z,0.25
2023-03-15T02:22:16.451Z,0.22
2023-03-15T02:23:16.442Z,0.29
2023-03-15T02:24:16.447Z,0.32
2023-03-15T02:25:16.438Z,0.26
2023-03-15T02:26:16.467Z,0.32
2023-03-15T02:27:16.463Z,0.36
2023-03-15T02:28:16.424Z,0.31
2023-03-15T02:29:16.410Z,0.26
2023-03-15T02:30:16.390Z,0.32
2023-03-15T02:31:16.413Z,0.43
2023-03-15T02:32:16.380Z,0.34
2023-03-15T02:33:16.396Z,0.36
2023-03-15T02:34:16.357Z,0.26
2023-03-15T02:35:16.392Z,0.39
2023-03-15T02:36:17.115Z,0.32
2023-03-15T02:37:17.250Z,0.37
2023-03-15T02:38:16.355Z,0.34
2023-03-15T02:39:16.366Z,0.41
2023-03-15T02:40:17.660Z,0.44
2023-03-15T02:41:16.292Z,0.52
2023-03-15T02:42:16.302Z,0.52
2023-03-15T02:43:16.296Z,0.44
2023-03-15T02:44:16.275Z,0.49
2023-03-15T02:45:16.271Z,0.52
2023-03-15T02:46:16.355Z,0.60
2023-03-15T02:47:16.264Z,0.56
2023-03-15T02:48:16.279Z,0.59
2023-03-15T02:49:16.245Z,0.50
2023-03-15T02:50:16.253Z,0.62
2023-03-15T02:51:16.240Z,0.63
2023-03-15T02:52:17.163Z,0.59
2023-03-15T02:53:16.230Z,0.56
2023-03-15T02:54:16.225Z,0.50
2023-03-15T02:55:16.249Z,0.56
2023-03-15T02:56:16.193Z,0.55
2023-03-15T02:57:16.217Z,0.58
2023-03-15T02:58:16.187Z,0.59
2023-03-15T02:59:17.163Z,0.59
2023-03-15T03:00:16.181Z,0.60
2023-03-15T03:01:16.222Z,0.60
2023-03-15T03:02:16.196Z,0.56
2023-03-15T03:03:16.191Z,0.66
2023-03-15T03:04:16.136Z,0.58
2023-03-15T03:05:16.122Z,0.60
2023-03-15T03:06:16.132Z,0.46
2023-03-15T03:07:16.110Z,0.55
2023-03-15T03:08:16.139Z,0.40
2023-03-15T03:09:16.249Z,0.40
2023-03-15T03:10:16.131Z,0.34
2023-03-15T03:11:16.115Z,0.34
2023-03-15T03:12:16.130Z,0.34
2023-03-15T03:13:16.078Z,0.28
2023-03-15T03:14:16.253Z,0.28
2023-03-15T03:15:16.667Z,0.34
2023-03-15T03:16:16.793Z,0.31
2023-03-15T03:17:16.067Z,0.32
2023-03-15T03:18:16.022Z,0.29
2023-03-15T03:19:16.067Z,0.39
2023-03-15T03:20:16.032Z,0.46
2023-03-15T03:21:16.007Z,0.43
2023-03-15T03:22:15.998Z,0.59
2023-03-15T03:23:15.984Z,0.60
2023-03-15T03:24:15.975Z,0.52
2023-03-15T03:25:16.984Z,0.66
2023-03-15T03:26:15.960Z,0.65
2023-03-15T03:27:15.951Z,0.68
2023-03-15T03:28:15.953Z,0.66
2023-03-15T03:29:15.951Z,0.73
2023-03-15T03:30:15.961Z,0.84
2023-03-15T03:31:16.017Z,0.86
2023-03-15T03:32:15.931Z,0.83
2023-03-15T03:33:15.908Z,0.88
2023-03-15T03:34:15.927Z,0.83
2023-03-15T03:35:16.270Z,0.81
2023-03-15T03:36:16.900Z,0.88
2023-03-15T03:37:15.890Z,0.99
2023-03-15T03:38:15.853Z,0.94
2023-03-15T03:39:15.877Z,0.96
2023-03-15T03:40:15.846Z,0.98
2023-03-15T03:41:15.844Z,0.95
2023-03-15T03:42:15.822Z,1.05
2023-03-15T03:43:15.814Z,1.05
2023-03-15T03:44:15.829Z,1.23
2023-03-15T03:45:16.769Z,1.22
2023-03-15T03:46:16.868Z,1.30
2023-03-15T03:47:15.810Z,1.34
2023-03-15T03:48:15.781Z,1.32
2023-03-15T03:49:15.770Z,1.44
2023-03-15T03:50:15.776Z,1.41
2023-03-15T03:51:15.764Z,1.48
2023-03-15T03:52:16.609Z,1.42
2023-03-15T03:53:15.764Z,1.41
2023-03-15T03:54:17.585Z,1.53
2023-03-15T03:55:16.735Z,1.55
2023-03-15T03:56:15.718Z,1.62
2023-03-15T03:57:16.653Z,1.55
2023-03-15T03:58:15.702Z,1.60
2023-03-15T03:59:15.732Z,1.60
2023-03-15T04:00:15.763Z,1.74
2023-03-15T04:01:15.734Z,1.76
2023-03-15T04:02:15.750Z,1.74
2023-03-15T04:03:15.658Z,1.78
2023-03-15T04:04:15.669Z,1.74
2023-03-15T04:05:15.640Z,1.71
2023-03-15T04:06:15.645Z,1.77
2023-03-15T04:07:17.091Z,1.84
2023-03-15T04:08:16.638Z,1.78
2023-03-15T04:09:15.659Z,1.81
2023-03-15T04:10:15.611Z,1.89
2023-03-15T04:11:16.177Z,1.91
2023-03-15T04:12:15.697Z,1.92
2023-03-15T04:13:15.580Z,1.91
2023-03-15T04:14:15.599Z,1.94
2023-03-15T04:15:15.592Z,1.91
2023-03-15T04:16:16.292Z,1.92
2023-03-15T04:17:15.539Z,2.00
2023-03-15T04:18:16.150Z,1.99
2023-03-15T04:19:16.164Z,2.02
2023-03-15T04:20:16.246Z,2.00
2023-03-15T04:21:15.523Z,1.97
2023-03-15T04:22:15.497Z,2.11
2023-03-15T04:23:15.495Z,2.02
2023-03-15T04:24:15.489Z,2.07
2023-03-15T04:25:15.479Z,2.02
2023-03-15T04:26:15.452Z,2.14
2023-03-15T04:27:15.468Z,2.11
2023-03-15T04:28:15.476Z,2.15
2023-03-15T04:29:15.508Z,2.11
2023-03-15T04:30:15.461Z,2.11
2023-03-15T04:31:15.482Z,2.13
2023-03-15T04:32:15.441Z,2.24
2023-03-15T04:33:15.433Z,2.20
2023-03-15T04:34:15.423Z,2.25
2023-03-15T04:35:15.399Z,2.20
2023-03-15T04:36:16.249Z,2.31
2023-03-15T04:37:15.375Z,2.28
2023-03-15T04:38:15.394Z,2.31
2023-03-15T04:39:15.367Z,2.26
2023-03-15T04:40:15.358Z,2.42
2023-03-15T04:41:15.372Z,2.33
2023-03-15T04:42:15.354Z,2.42
2023-03-15T04:43:15.356Z,2.42
2023-03-15T04:44:15.358Z,2.35
2023-03-15T04:45:15.326Z,2.42
2023-03-15T04:46:15.349Z,2.42
2023-03-15T04:47:15.304Z,2.51
2023-03-15T04:48:15.298Z,2.56
2023-03-15T04:49:15.319Z,2.56
2023-03-15T04:50:15.315Z,2.64
2023-03-15T04:51:15.297Z,2.65
2023-03-15T04:52:15.296Z,2.62
2023-03-15T04:53:15.267Z,2.61
2023-03-15T04:54:16.181Z,2.57
2023-03-15T04:55:15.252Z,2.69
2023-03-15T04:56:15.231Z,2.77
2023-03-15T04:57:16.186Z,2.79
2023-03-15T04:58:15.245Z,2.68
2023-03-15T04:59:15.263Z,2.85
2023-03-15T05:00:15.205Z,2.74
2023-03-15T05:01:15.259Z,2.75
2023-03-15T05:02:16.788Z,2.82
2023-03-15T05:03:15.185Z,2.83
2023-03-15T05:04:15.190Z,2.74
2023-03-15T05:05:15.196Z,2.79
2023-03-15T05:06:15.193Z,2.79
2023-03-15T05:07:15.179Z,2.86
2023-03-15T05:08:15.135Z,2.82
2023-03-15T05:09:15.124Z,2.85
2023-03-15T05:10:15.122Z,2.77
2023-03-15T05:11:15.124Z,2.85
2023-03-15T05:12:15.144Z,2.79
2023-03-15T05:13:15.132Z,2.82
2023-03-15T05:14:15.102Z,2.77
2023-03-15T05:15:15.127Z,2.69
2023-03-15T05:16:15.130Z,2.64
2023-03-15T05:17:15.077Z,2.67
2023-03-15T05:18:15.077Z,2.64
2023-03-15T05:19:15.760Z,2.69
2023-03-15T05:20:15.057Z,2.79
2023-03-15T05:21:15.046Z,2.80
2023-03-15T05:22:15.050Z,2.79
2023-03-15T05:23:15.058Z,2.79
2023-03-15T05:24:15.017Z,2.85
2023-03-15T05:25:15.000Z,2.77
2023-03-15T05:26:15.668Z,2.85
2023-03-15T05:27:14.980Z,2.90
2023-03-15T05:28:14.981Z,2.87
2023-03-15T05:29:15.970Z,2.86
2023-03-15T05:30:14.971Z,2.87
2023-03-15T05:31:14.951Z,2.90
2023-03-15T05:32:14.966Z,2.77
2023-03-15T05:33:14.973Z,2.75
2023-03-15T05:34:14.924Z,2.79
2023-03-15T05:35:15.939Z,2.72
2023-03-15T05:36:14.921Z,2.77
2023-03-15T05:37:14.913Z,2.85
2023-03-15T05:38:17.171Z,2.80
2023-03-15T05:39:14.900Z,2.74
2023-03-15T05:40:14.887Z,2.68
2023-03-15T05:41:14.891Z,2.65
2023-03-15T05:42:14.870Z,2.64
2023-03-15T05:43:14.870Z,2.61
2023-03-15T05:44:14.853Z,2.60
2023-03-15T05:45:14.851Z,2.49
2023-03-15T05:46:14.928Z,2.49
2023-03-15T05:47:14.852Z,2.39
2023-03-15T05:48:14.826Z,2.44
2023-03-15T05:49:14.839Z,2.44
2023-03-15T05:50:14.814Z,2.42
2023-03-15T05:51:14.811Z,2.54
2023-03-15T05:52:15.679Z,2.57
2023-03-15T05:53:14.808Z,2.60
2023-03-15T05:54:14.792Z,2.49
2023-03-15T05:55:14.777Z,2.44
2023-03-15T05:56:14.769Z,2.38
2023-03-15T05:57:14.758Z,2.44
2023-03-15T05:58:14.746Z,2.42
2023-03-15T05:59:14.736Z,2.31
2023-03-15T06:00:14.741Z,2.42
2023-03-15T06:01:14.725Z,2.26
2023-03-15T06:02:14.736Z,2.36
2023-03-15T06:03:14.796Z,2.36
2023-03-15T06:04:14.768Z,2.38
2023-03-15T06:05:14.712Z,2.28
2023-03-15T06:06:14.682Z,2.22
2023-03-15T06:07:14.684Z,2.28
2023-03-15T06:08:14.680Z,2.31
2023-03-15T06:09:14.672Z,2.36
2023-03-15T06:10:14.653Z,2.31
2023-03-15T06:11:14.638Z,2.26
2023-03-15T06:12:14.642Z,2.25
2023-03-15T06:13:16.620Z,2.14
2023-03-15T06:14:14.622Z,2.17
2023-03-15T06:15:14.610Z,2.17
2023-03-15T06:16:14.692Z,2.14
2023-03-15T06:17:14.604Z,2.24
2023-03-15T06:18:14.616Z,2.18
2023-03-15T06:19:14.613Z,2.25
2023-03-15T06:20:14.580Z,2.15
2023-03-15T06:21:14.574Z,2.14
2023-03-15T06:22:14.564Z,2.26
2023-03-15T06:23:14.584Z,2.28
2023-03-15T06:24:14.546Z,2.28
2023-03-15T06:25:16.185Z,2.25
2023-03-15T06:26:14.546Z,2.25
2023-03-15T06:27:14.725Z,2.28
2023-03-15T06:28:14.557Z,2.26
2023-03-15T06:29:14.507Z,2.24
2023-03-15T06:30:16.959Z,2.31
2023-03-15T06:31:15.546Z,2.25
2023-03-15T06:32:14.497Z,2.33
2023-03-15T06:33:14.512Z,2.29
2023-03-15T06:34:14.476Z,2.28
2023-03-15T06:35:14.480Z,2.33
2023-03-15T06:36:14.444Z,2.20
2023-03-15T06:37:16.280Z,2.31
2023-03-15T06:38:18.681Z,2.31
2023-03-15T06:39:14.460Z,2.29
2023-03-15T06:40:15.271Z,2.38
2023-03-15T06:41:14.419Z,2.38
2023-03-15T06:42:14.401Z,2.51
2023-03-15T06:43:14.393Z,2.56
2023-03-15T06:44:14.390Z,2.54
2023-03-15T06:45:14.400Z,2.65
2023-03-15T06:46:14.418Z,2.67
2023-03-15T06:47:14.388Z,2.67
2023-03-15T06:48:14.362Z,2.57
2023-03-15T06:49:14.383Z,2.64
2023-03-15T06:50:14.327Z,2.69
2023-03-15T06:51:14.338Z,2.74
2023-03-15T06:52:14.338Z,2.69
2023-03-15T06:53:15.144Z,2.60
2023-03-15T06:54:14.329Z,2.68
2023-03-15T06:55:14.298Z,2.71
2023-03-15T06:56:16.244Z,2.67
2023-03-15T06:57:14.289Z,2.57
2023-03-15T06:58:15.197Z,2.61
2023-03-15T06:59:14.504Z,2.56
2023-03-15T07:00:14.387Z,2.46
2023-03-15T07:01:14.805Z,2.51
2023-03-15T07:02:14.353Z,2.65
2023-03-15T07:03:15.139Z,2.71
2023-03-15T07:04:14.240Z,2.65
2023-03-15T07:05:14.254Z,2.62
2023-03-15T07:06:14.226Z,2.71
2023-03-15T07:07:14.222Z,2.75
2023-03-15T07:08:14.232Z,2.85
2023-03-15T07:09:14.216Z,2.83
2023-03-15T07:10:14.233Z,2.75
2023-03-15T07:11:14.398Z,2.79
2023-03-15T07:12:14.704Z,2.82
2023-03-15T07:13:14.173Z,2.80
2023-03-15T07:14:14.200Z,2.87
2023-03-15T07:15:16.103Z,2.97
2023-03-15T07:16:14.311Z,2.92
2023-03-15T07:17:14.128Z,2.86
2023-03-15T07:18:14.142Z,2.83
2023-03-15T07:19:14.114Z,2.83
2023-03-15T07:20:14.111Z,2.97
2023-03-15T07:21:14.113Z,2.92
2023-03-15T07:22:14.119Z,2.93
2023-03-15T07:23:14.104Z,3.03
2023-03-15T07:24:14.110Z,3.00
2023-03-15T07:25:14.083Z,3.10
2023-03-15T07:26:14.056Z,2.98
2023-03-15T07:27:16.073Z,3.01
2023-03-15T07:28:15.050Z,3.08
2023-03-15T07:29:14.305Z,3.04
2023-03-15T07:30:14.090Z,3.18
2023-03-15T07:31:14.711Z,3.16
2023-03-15T07:32:14.070Z,3.14
2023-03-15T07:33:14.045Z,3.03
2023-03-15T07:34:13.997Z,3.05
2023-03-15T07:35:13.981Z,3.07
2023-03-15T07:36:14.009Z,3.05
2023-03-15T07:37:14.010Z,3.08
2023-03-15T07:38:13.954Z,3.05
2023-03-15T07:39:15.686Z,3.11
2023-03-15T07:40:14.687Z,3.16
2023-03-15T07:41:13.933Z,3.14
2023-03-15T07:42:13.938Z,3.08
2023-03-15T07:43:13.945Z,3.10
2023-03-15T07:44:13.959Z,3.13
2023-03-15T07:45:13.957Z,3.18
2023-03-15T07:46:13.928Z,3.16
2023-03-15T07:47:13.884Z,3.18
2023-03-15T07:48:13.880Z,3.11
2023-03-15T07:49:13.847Z,3.04
2023-03-15T07:50:16.925Z,3.07
2023-03-15T07:51:14.861Z,3.08
2023-03-15T07:52:13.894Z,3.11
2023-03-15T07:53:13.848Z,3.13
2023-03-15T07:54:13.842Z,3.11
2023-03-15T07:55:13.841Z,3.16
2023-03-15T07:56:13.820Z,3.13
2023-03-15T07:57:13.834Z,3.05
2023-03-15T07:58:13.815Z,3.03
2023-03-15T07:59:14.705Z,3.14
2023-03-15T08:00:13.763Z,3.21
2023-03-15T08:01:13.798Z,3.22
2023-03-15T08:02:14.751Z,3.28
2023-03-15T08:03:13.895Z,3.41
2023-03-15T08:04:13.749Z,3.50
2023-03-15T08:05:13.764Z,3.69
2023-03-15T08:06:13.751Z,3.83
2023-03-15T08:07:14.694Z,3.78
2023-03-15T08:08:13.714Z,3.83
2023-03-15T08:09:13.682Z,3.83
2023-03-15T08:10:13.687Z,3.84
2023-03-15T08:11:13.827Z,3.87
2023-03-15T08:12:13.701Z,3.78
2023-03-15T08:13:13.730Z,3.92
2023-03-15T08:14:13.671Z,3.99
2023-03-15T08:15:13.667Z,3.92
2023-03-15T08:16:13.728Z,4.02
2023-03-15T08:17:14.191Z,3.99
2023-03-15T08:18:13.631Z,4.01
2023-03-15T08:19:14.288Z,4.14
2023-03-15T08:20:13.634Z,4.16
2023-03-15T08:21:13.610Z,4.35
2023-03-15T08:22:13.619Z,4.31
2023-03-15T08:23:14.215Z,4.23
2023-03-15T08:24:13.616Z,4.28
2023-03-15T08:25:13.576Z,4.16
2023-03-15T08:26:13.613Z,4.08
2023-03-15T08:27:13.552Z,4.08
2023-03-15T08:28:13.546Z,4.01
2023-03-15T08:29:13.544Z,4.05
2023-03-15T08:30:13.548Z,4.22
2023-03-15T08:31:13.563Z,4.23
2023-03-15T08:32:13.530Z,4.16
2023-03-15T08:33:13.512Z,4.16
2023-03-15T08:34:13.525Z,4.12
2023-03-15T08:35:15.792Z,4.22
2023-03-15T08:36:14.546Z,4.30
2023-03-15T08:37:13.463Z,4.40
2023-03-15T08:38:13.479Z,4.48
2023-03-15T08:39:13.489Z,4.53
2023-03-15T08:40:13.479Z,4.53
2023-03-15T08:41:13.475Z,4.55
2023-03-15T08:42:13.519Z,4.49
2023-03-15T08:43:13.443Z,4.53
2023-03-15T08:44:13.430Z,4.56
2023-03-15T08:45:14.209Z,4.49
2023-03-15T08:46:13.430Z,4.66
2023-03-15T08:47:13.403Z,4.67
2023-03-15T08:48:13.404Z,4.73
2023-03-15T08:49:14.191Z,4.73
2023-03-15T08:50:13.416Z,4.92
2023-03-15T08:51:13.385Z,4.93
2023-03-15T08:52:13.356Z,5.14
2023-03-15T08:53:13.350Z,4.99
2023-03-15T08:54:13.361Z,4.97
2023-03-15T08:55:13.796Z,5.05
2023-03-15T08:56:13.322Z,5.02
2023-03-15T08:57:13.324Z,5.15
2023-03-15T08:58:13.324Z,5.15
2023-03-15T08:59:19.403Z,5.32
2023-03-15T09:00:15.328Z,5.36
2023-03-15T09:01:13.300Z,5.35
2023-03-15T09:02:13.881Z,5.32
2023-03-15T09:03:13.280Z,5.15
2023-03-15T09:04:13.323Z,5.10
2023-03-15T09:05:13.275Z,5.05
2023-03-15T09:06:13.239Z,5.10
2023-03-15T09:07:13.234Z,5.04
2023-03-15T09:08:13.253Z,5.12
2023-03-15T09:09:13.296Z,5.00
2023-03-15T09:10:13.207Z,5.07
2023-03-15T09:11:13.254Z,5.07
2023-03-15T09:12:13.192Z,4.90
2023-03-15T09:13:13.183Z,4.75
2023-03-15T09:14:13.304Z,4.73
2023-03-15T09:15:13.185Z,4.74
2023-03-15T09:16:13.169Z,4.71
2023-03-15T09:17:13.201Z,4.71
2023-03-15T09:18:13.150Z,4.73
2023-03-15T09:19:13.152Z,4.71
2023-03-15T09:20:14.151Z,4.75
2023-03-15T09:21:13.119Z,4.74
2023-03-15T09:22:16.547Z,4.70
2023-03-15T09:23:15.801Z,4.73
2023-03-15T09:24:13.775Z,4.66
2023-03-15T09:25:13.113Z,4.73
2023-03-15T09:26:13.129Z,4.73
2023-03-15T09:27:13.082Z,4.68
2023-03-15T09:28:13.327Z,4.80
2023-03-15T09:29:13.623Z,4.84
2023-03-15T09:30:13.152Z,4.89
2023-03-15T09:31:13.171Z,4.90
2023-03-15T09:32:13.031Z,4.90
2023-03-15T09:33:13.082Z,5.04
2023-03-15T09:34:13.043Z,5.08
2023-03-15T09:35:13.769Z,5.10
2023-03-15T09:36:13.329Z,5.32
2023-03-15T09:37:12.987Z,5.38
2023-03-15T09:38:13.001Z,5.51
2023-03-15T09:39:13.009Z,5.64
2023-03-15T09:40:13.023Z,5.62
2023-03-15T09:41:12.968Z,5.62
2023-03-15T09:42:13.983Z,5.83
2023-03-15T09:43:12.952Z,5.90
2023-03-15T09:44:12.984Z,6.08
2023-03-15T09:45:12.944Z,6.09
2023-03-15T09:46:13.033Z,6.27
2023-03-15T09:47:12.931Z,6.42
2023-03-15T09:48:12.920Z,6.46
2023-03-15T09:49:12.901Z,6.63
2023-03-15T09:50:12.904Z,6.70
2023-03-15T09:51:12.899Z,6.74
2023-03-15T09:52:13.674Z,6.72
2023-03-15T09:53:12.930Z,6.85
2023-03-15T09:54:12.871Z,6.77
2023-03-15T09:55:12.884Z,6.64
2023-03-15T09:56:12.877Z,6.51
2023-03-15T09:57:12.830Z,6.42
2023-03-15T09:58:12.840Z,6.51
2023-03-15T09:59:12.839Z,6.42
2023-03-15T10:00:13.811Z,6.49
2023-03-15T10:01:12.941Z,6.46
2023-03-15T10:02:12.849Z,6.20
2023-03-15T10:03:13.751Z,6.51
2023-03-15T10:04:12.832Z,6.51
2023-03-15T10:05:12.795Z,6.69
2023-03-15T10:06:12.771Z,6.82
2023-03-15T10:07:13.311Z,6.78
2023-03-15T10:08:12.761Z,6.95
2023-03-15T10:09:12.761Z,6.88
2023-03-15T10:10:12.747Z,6.72
2023-03-15T10:11:12.756Z,6.66
2023-03-15T10:12:12.741Z,6.67
2023-03-15T10:13:12.722Z,6.59
2023-03-15T10:14:12.715Z,6.56
2023-03-15T10:15:12.696Z,6.49
2023-03-15T10:16:12.751Z,6.66
2023-03-15T10:17:12.691Z,6.64
2023-03-15T10:18:12.681Z,6.75
2023-03-15T10:19:12.660Z,6.88
2023-03-15T10:20:12.671Z,6.93
2023-03-15T10:21:12.872Z,7.00
2023-03-15T10:22:12.662Z,7.06
2023-03-15T10:23:12.640Z,6.99
2023-03-15T10:24:12.639Z,6.99
2023-03-15T10:25:12.626Z,7.14
2023-03-15T10:26:14.134Z,7.15
2023-03-15T10:27:12.626Z,7.25
2023-03-15T10:28:12.817Z,7.38
2023-03-15T10:29:12.601Z,7.42
2023-03-15T10:30:12.604Z,7.63
2023-03-15T10:31:18.249Z,7.60
2023-03-15T10:32:13.653Z,7.63
2023-03-15T10:33:12.569Z,7.63
2023-03-15T10:34:12.584Z,7.60
2023-03-15T10:35:12.565Z,7.79
2023-03-15T10:36:12.602Z,7.69
2023-03-15T10:37:12.512Z,7.61
2023-03-15T10:38:12.514Z,7.43
2023-03-15T10:39:12.710Z,7.32
2023-03-15T10:40:12.622Z,7.35
2023-03-15T10:41:15.244Z,7.28
2023-03-15T10:42:12.991Z,7.23
2023-03-15T10:43:12.510Z,7.18
2023-03-15T10:44:12.494Z,7.14
2023-03-15T10:45:12.493Z,7.21
2023-03-15T10:46:12.507Z,7.36
2023-03-15T10:47:22.471Z,7.50
2023-03-15T10:48:14.875Z,7.48
2023-03-15T10:49:12.472Z,7.36
2023-03-15T10:50:12.444Z,7.40
2023-03-15T10:51:12.636Z,7.47
2023-03-15T10:52:14.218Z,7.36
2023-03-15T10:53:12.399Z,7.38
2023-03-15T10:54:12.383Z,7.29
2023-03-15T10:55:12.374Z,7.25
2023-03-15T10:56:12.382Z,7.29
2023-03-15T10:57:12.386Z,7.14
2023-03-15T10:58:12.340Z,7.17
2023-03-15T10:59:13.220Z,7.32
2023-03-15T11:00:14.258Z,7.18
2023-03-15T11:01:12.393Z,7.18
2023-03-15T11:02:12.321Z,6.93
2023-03-15T11:03:12.355Z,6.96
2023-03-15T11:04:12.334Z,6.85
2023-03-15T11:05:12.285Z,6.77
2023-03-15T11:06:12.286Z,6.74
2023-03-15T11:07:12.270Z,6.74
2023-03-15T11:08:12.258Z,6.78
2023-03-15T11:09:12.248Z,6.79
2023-03-15T11:10:12.236Z,7.00
2023-03-15T11:11:12.261Z,7.18
2023-03-15T11:12:12.276Z,7.13
2023-03-15T11:13:13.244Z,7.18
2023-03-15T11:14:12.225Z,7.38
2023-03-15T11:15:12.222Z,7.50
2023-03-15T11:16:12.230Z,7.66
2023-03-15T11:17:12.194Z,7.58
2023-03-15T11:18:12.185Z,7.90
2023-03-15T11:19:12.247Z,7.82
2023-03-15T11:20:12.681Z,7.88
2023-03-15T11:21:12.149Z,7.98
2023-03-15T11:22:12.156Z,7.93
2023-03-15T11:23:12.227Z,7.87
2023-03-15T11:24:12.158Z,7.95
2023-03-15T11:25:12.203Z,7.93
2023-03-15T11:26:14.129Z,7.94
2023-03-15T11:27:14.142Z,8.01
2023-03-15T11:28:12.117Z,7.85
2023-03-15T11:29:12.099Z,7.80
2023-03-15T11:30:13.125Z,7.82
2023-03-15T11:31:12.108Z,7.88
2023-03-15T11:32:12.069Z,8.03
2023-03-15T11:33:12.070Z,8.05
2023-03-15T11:34:12.094Z,8.10
2023-03-15T11:35:12.061Z,7.85
2023-03-15T11:36:12.509Z,7.95
2023-03-15T11:37:13.284Z,7.90
2023-03-15T11:38:15.455Z,7.95
2023-03-15T11:39:13.052Z,7.95
2023-03-15T11:40:14.026Z,7.95
2023-03-15T11:41:13.861Z,8.01
2023-03-15T11:42:12.051Z,8.12
2023-03-15T11:43:12.009Z,8.05
2023-03-15T11:44:11.987Z,8.06
2023-03-15T11:45:12.736Z,8.08
2023-03-15T11:46:12.039Z,8.10
2023-03-15T11:47:12.115Z,8.06
2023-03-15T11:48:11.934Z,8.12
2023-03-15T11:49:11.939Z,8.00
2023-03-15T11:50:11.947Z,7.97
2023-03-15T11:51:11.944Z,8.00
2023-03-15T11:52:11.936Z,8.05
2023-03-15T11:53:13.280Z,7.95
2023-03-15T11:54:12.832Z,7.95
2023-03-15T11:55:11.933Z,8.16
2023-03-15T11:56:11.893Z,8.23
2023-03-15T11:57:11.875Z,8.33
2023-03-15T11:58:12.757Z,8.46
2023-03-15T11:59:11.937Z,8.63
2023-03-15T12:00:11.970Z,8.88
2023-03-15T12:01:12.877Z,8.87
2023-03-15T12:02:12.907Z,8.58
2023-03-15T12:03:11.946Z,8.51
2023-03-15T12:04:11.827Z,8.51
2023-03-15T12:05:17.948Z,8.52
2023-03-15T12:06:13.809Z,8.26
2023-03-15T12:07:11.802Z,7.95
2023-03-15T12:08:12.709Z,7.85
2023-03-15T12:09:11.808Z,7.82
2023-03-15T12:10:11.765Z,7.94
2023-03-15T12:11:11.765Z,8.00
2023-03-15T12:12:11.757Z,8.19
2023-03-15T12:13:11.735Z,8.26
2023-03-15T12:14:11.744Z,8.01
2023-03-15T12:15:11.795Z,7.72
2023-03-15T12:16:12.763Z,7.67
2023-03-15T12:17:12.256Z,7.77
2023-03-15T12:18:11.751Z,7.93
2023-03-15T12:19:11.689Z,7.88
2023-03-15T12:20:11.677Z,7.95
2023-03-15T12:21:11.690Z,8.08
2023-03-15T12:22:11.835Z,8.26
2023-03-15T12:23:12.703Z,8.12
2023-03-15T12:24:11.668Z,8.15
2023-03-15T12:25:11.679Z,8.15
2023-03-15T12:26:11.641Z,8.18
2023-03-15T12:28:18.480Z,8.01
2023-03-15T12:29:18.478Z,7.93
2023-03-15T12:30:18.466Z,7.61
2023-03-15T12:31:18.536Z,7.56
2023-03-15T12:32:19.531Z,7.77
2023-03-15T12:33:19.562Z,7.63
2023-03-15T12:34:19.530Z,7.83
2023-03-15T12:35:20.417Z,7.82
2023-03-15T12:36:19.506Z,7.83
2023-03-15T12:37:19.548Z,7.94
2023-03-15T12:38:19.551Z,8.18
2023-03-15T12:39:19.497Z,8.26
2023-03-15T12:40:19.495Z,8.46
2023-03-15T12:41:19.484Z,8.64
2023-03-15T12:42:19.472Z,8.73
2023-03-15T12:43:20.416Z,8.82
2023-03-15T12:44:19.451Z,8.95
2023-03-15T12:45:19.450Z,9.04
2023-03-15T12:46:19.443Z,9.11
2023-03-15T12:47:19.424Z,9.16
2023-03-15T12:48:19.434Z,9.11
2023-03-15T12:49:19.946Z,9.13
2023-03-15T12:50:19.410Z,9.19
2023-03-15T12:51:19.397Z,9.31
2023-03-15T12:52:19.393Z,9.41
2023-03-15T12:53:19.367Z,9.21
2023-03-15T12:54:20.372Z,8.99
2023-03-15T12:55:19.405Z,8.70
2023-03-15T12:56:20.283Z,8.34
2023-03-15T12:57:19.362Z,7.88
2023-03-15T12:58:19.332Z,7.76
2023-03-15T12:59:19.392Z,7.69
2023-03-15T13:00:19.837Z,7.61
2023-03-15T13:01:19.380Z,7.60
2023-03-15T13:02:20.335Z,7.48
2023-03-15T13:03:19.495Z,7.24
2023-03-15T13:04:19.306Z,7.13
2023-03-15T13:05:19.312Z,7.06
2023-03-15T13:06:19.283Z,7.13
2023-03-15T13:07:19.853Z,7.05
2023-03-15T13:08:19.271Z,7.13
2023-03-15T13:09:19.265Z,7.14
2023-03-15T13:10:19.245Z,7.11
2023-03-15T13:11:19.928Z,7.03
2023-03-15T13:12:19.241Z,7.00
2023-03-15T13:13:19.230Z,6.97
2023-03-15T13:14:19.209Z,6.96
2023-03-15T13:15:19.832Z,7.05
2023-03-15T13:16:19.238Z,7.06
2023-03-15T13:17:19.200Z,7.20
2023-03-15T13:18:19.187Z,7.29
2023-03-15T13:19:19.166Z,7.23
2023-03-15T13:20:19.158Z,7.39